PLF225 LHBP-EPWA
Flight info
| Callsign | PLF225 |
|---|---|
| Flight time | 0h 53m |
| Altitude | 32000 |
| Route | LITKU Y301 KALIF DCT SUPAK DCT ORTEB DCT KONZI DCT LOGDA |
| Aircraft | B738/M-SDE2E3FGHIRWXY/LB1 |
Departure
| Time | 2026-05-04 19:54 |
|---|---|
| Airport | Budapest Liszt Ferenc International Airport (LHBP) |
Arrival
| Time | 2026-05-04 20:47 |
|---|---|
| Airport | Warsaw Chopin Airport (EPWA) |
| Time | Latitude | Longitude | Altitude | Speed | Heading |
|---|---|---|---|---|---|
| 2026-05-04 19:07 | 47.43154 | 19.23727 | 436 ft | 0 kts | 254° |
| 2026-05-04 19:37 | 47.43151 | 19.23709 | 436 ft | 9 kts | 255° |
| 2026-05-04 19:37 | 47.43162 | 19.23611 | 436 ft | 10 kts | 291° |
| 2026-05-04 19:38 | 47.43205 | 19.23555 | 436 ft | 6 kts | 7° |
| 2026-05-04 19:38 | 47.43237 | 19.23573 | 436 ft | 0 kts | 23° |
| 2026-05-04 19:38 | 47.43239 | 19.23574 | 436 ft | 0 kts | 23° |
| 2026-05-04 19:38 | 47.43242 | 19.23576 | 436 ft | 0 kts | 23° |
| 2026-05-04 19:39 | 47.43254 | 19.23585 | 436 ft | 5 kts | 27° |
| 2026-05-04 19:39 | 47.43270 | 19.23658 | 436 ft | 9 kts | 112° |
| 2026-05-04 19:39 | 47.43254 | 19.23744 | 436 ft | 13 kts | 113° |
| 2026-05-04 19:39 | 47.43211 | 19.23882 | 435 ft | 14 kts | 116° |
| 2026-05-04 19:40 | 47.43162 | 19.24026 | 433 ft | 15 kts | 116° |
| 2026-05-04 19:40 | 47.43112 | 19.24177 | 433 ft | 17 kts | 116° |
| 2026-05-04 19:40 | 47.43053 | 19.24353 | 433 ft | 20 kts | 116° |
| 2026-05-04 19:40 | 47.42994 | 19.24534 | 433 ft | 15 kts | 116° |
| 2026-05-04 19:41 | 47.42958 | 19.24640 | 435 ft | 0 kts | 116° |
| 2026-05-04 19:42 | 47.42957 | 19.24644 | 435 ft | 0 kts | 116° |
| 2026-05-04 19:42 | 47.42956 | 19.24648 | 435 ft | 0 kts | 116° |
| 2026-05-04 19:42 | 47.42955 | 19.24648 | 435 ft | 0 kts | 116° |
| 2026-05-04 19:43 | 47.42954 | 19.24652 | 435 ft | 0 kts | 116° |
| 2026-05-04 19:43 | 47.42954 | 19.24654 | 435 ft | 0 kts | 116° |
| 2026-05-04 19:43 | 47.42950 | 19.24666 | 435 ft | 0 kts | 115° |
| 2026-05-04 19:45 | 47.42948 | 19.24670 | 435 ft | 2 kts | 115° |
| 2026-05-04 19:45 | 47.42925 | 19.24795 | 440 ft | 22 kts | 76° |
| 2026-05-04 19:45 | 47.43063 | 19.25014 | 449 ft | 30 kts | 42° |
| 2026-05-04 19:45 | 47.43154 | 19.25134 | 455 ft | 6 kts | 41° |
| 2026-05-04 19:46 | 47.43157 | 19.25137 | 455 ft | 0 kts | 41° |
| 2026-05-04 19:46 | 47.43158 | 19.25139 | 455 ft | 1 kts | 41° |
| 2026-05-04 19:46 | 47.43177 | 19.25164 | 456 ft | 6 kts | 41° |
| 2026-05-04 19:47 | 47.43229 | 19.25233 | 458 ft | 13 kts | 42° |
| 2026-05-04 19:47 | 47.43310 | 19.25343 | 462 ft | 16 kts | 42° |
| 2026-05-04 19:47 | 47.43393 | 19.25456 | 466 ft | 17 kts | 41° |
| 2026-05-04 19:47 | 47.43491 | 19.25584 | 469 ft | 20 kts | 41° |
| 2026-05-04 19:48 | 47.43597 | 19.25727 | 474 ft | 18 kts | 43° |
| 2026-05-04 19:48 | 47.43684 | 19.25846 | 476 ft | 16 kts | 43° |
| 2026-05-04 19:48 | 47.43771 | 19.25964 | 477 ft | 16 kts | 41° |
| 2026-05-04 19:48 | 47.43848 | 19.26066 | 479 ft | 12 kts | 41° |
| 2026-05-04 19:49 | 47.43900 | 19.26135 | 479 ft | 7 kts | 42° |
| 2026-05-04 19:49 | 47.43919 | 19.26162 | 479 ft | 1 kts | 43° |
| 2026-05-04 19:49 | 47.43928 | 19.26174 | 479 ft | 1 kts | 43° |
| 2026-05-04 19:49 | 47.43935 | 19.26184 | 479 ft | 2 kts | 43° |
| 2026-05-04 19:50 | 47.43946 | 19.26197 | 479 ft | 1 kts | 43° |
| 2026-05-04 19:50 | 47.43962 | 19.26220 | 479 ft | 5 kts | 42° |
| 2026-05-04 19:50 | 47.43993 | 19.26262 | 479 ft | 2 kts | 43° |
| 2026-05-04 19:50 | 47.43997 | 19.26267 | 479 ft | 0 kts | 43° |
| 2026-05-04 19:51 | 47.43998 | 19.26270 | 479 ft | 0 kts | 43° |
| 2026-05-04 19:52 | 47.43999 | 19.26270 | 479 ft | 0 kts | 43° |
| 2026-05-04 19:52 | 47.44010 | 19.26285 | 479 ft | 7 kts | 43° |
| 2026-05-04 19:52 | 47.44059 | 19.26386 | 480 ft | 16 kts | 71° |
| 2026-05-04 19:52 | 47.44081 | 19.26490 | 480 ft | 5 kts | 94° |
| 2026-05-04 19:53 | 47.44066 | 19.26524 | 479 ft | 0 kts | 131° |
| 2026-05-04 19:53 | 47.44062 | 19.26530 | 479 ft | 1 kts | 131° |
| 2026-05-04 19:53 | 47.44052 | 19.26548 | 479 ft | 8 kts | 131° |
| 2026-05-04 19:53 | 47.43872 | 19.26838 | 473 ft | 77 kts | 133° |
| 2026-05-04 19:54 | 47.43341 | 19.27697 | 446 ft | 145 kts | 132° |
| 2026-05-04 19:54 | 47.42612 | 19.28874 | 972 ft | 155 kts | 132° |
| 2026-05-04 19:54 | 47.41930 | 19.30042 | 1728 ft | 153 kts | 123° |
| 2026-05-04 19:54 | 47.41437 | 19.31407 | 2483 ft | 151 kts | 117° |
| 2026-05-04 19:55 | 47.40965 | 19.32771 | 3160 ft | 152 kts | 119° |
| 2026-05-04 19:55 | 47.40460 | 19.34135 | 3822 ft | 154 kts | 120° |
| 2026-05-04 19:55 | 47.39939 | 19.35515 | 4459 ft | 157 kts | 121° |
| 2026-05-04 19:55 | 47.39366 | 19.37024 | 4848 ft | 179 kts | 121° |
| 2026-05-04 19:56 | 47.38714 | 19.38751 | 5286 ft | 201 kts | 120° |
| 2026-05-04 19:56 | 47.38345 | 19.40762 | 5965 ft | 213 kts | 87° |
| 2026-05-04 19:56 | 47.38803 | 19.42838 | 6673 ft | 225 kts | 61° |
| 2026-05-04 19:56 | 47.39856 | 19.44756 | 7128 ft | 251 kts | 45° |
| 2026-05-04 19:57 | 47.41174 | 19.46645 | 7569 ft | 277 kts | 44° |
| 2026-05-04 19:57 | 47.42576 | 19.48659 | 8305 ft | 289 kts | 44° |
| 2026-05-04 19:57 | 47.44016 | 19.50752 | 9217 ft | 294 kts | 43° |
| 2026-05-04 19:57 | 47.45480 | 19.52890 | 10177 ft | 298 kts | 43° |
| 2026-05-04 19:58 | 47.46939 | 19.55016 | 10643 ft | 319 kts | 43° |
| 2026-05-04 19:58 | 47.48107 | 19.56702 | 10756 ft | 341 kts | 42° |
| 2026-05-04 19:58 | 47.51803 | 19.61999 | 12385 ft | 358 kts | 42° |
| 2026-05-04 19:59 | 47.53606 | 19.64573 | 13254 ft | 363 kts | 41° |
| 2026-05-04 19:59 | 47.55461 | 19.67124 | 14146 ft | 367 kts | 36° |
| 2026-05-04 19:59 | 47.57696 | 19.68866 | 15033 ft | 365 kts | 13° |
| 2026-05-04 19:59 | 47.60191 | 19.69099 | 15946 ft | 362 kts | 349° |
| 2026-05-04 20:00 | 47.62416 | 19.68043 | 16772 ft | 361 kts | 332° |
| 2026-05-04 20:00 | 47.64381 | 19.66157 | 17551 ft | 363 kts | 320° |
| 2026-05-04 20:00 | 47.66172 | 19.63526 | 18388 ft | 365 kts | 310° |
| 2026-05-04 20:00 | 47.67773 | 19.60553 | 19201 ft | 369 kts | 308° |
| 2026-05-04 20:01 | 47.69352 | 19.57538 | 19984 ft | 372 kts | 308° |
| 2026-05-04 20:01 | 47.70948 | 19.54510 | 20759 ft | 375 kts | 308° |
| 2026-05-04 20:01 | 47.72584 | 19.51460 | 21488 ft | 379 kts | 311° |
| 2026-05-04 20:01 | 47.74577 | 19.48882 | 22168 ft | 385 kts | 327° |
| 2026-05-04 20:02 | 47.77040 | 19.47372 | 22886 ft | 391 kts | 345° |
| 2026-05-04 20:02 | 47.79755 | 19.47117 | 23536 ft | 400 kts | 3° |
| 2026-05-04 20:02 | 47.82549 | 19.47818 | 23737 ft | 410 kts | 8° |
| 2026-05-04 20:02 | 47.85292 | 19.48684 | 23806 ft | 404 kts | 9° |
| 2026-05-04 20:03 | 47.88049 | 19.49542 | 23882 ft | 402 kts | 8° |
| 2026-05-04 20:03 | 47.90789 | 19.50378 | 23960 ft | 404 kts | 8° |
| 2026-05-04 20:03 | 47.93515 | 19.51197 | 24033 ft | 405 kts | 8° |
| 2026-05-04 20:03 | 47.96278 | 19.52018 | 24048 ft | 406 kts | 8° |
| 2026-05-04 20:04 | 47.99053 | 19.52837 | 24046 ft | 405 kts | 8° |
| 2026-05-04 20:04 | 48.01813 | 19.53649 | 24047 ft | 405 kts | 8° |
| 2026-05-04 20:04 | 48.04567 | 19.54455 | 24047 ft | 405 kts | 8° |
| 2026-05-04 20:04 | 48.07290 | 19.55251 | 24047 ft | 405 kts | 8° |
| 2026-05-04 20:05 | 48.10068 | 19.56063 | 24047 ft | 405 kts | 8° |
| 2026-05-04 20:05 | 48.12785 | 19.56855 | 24047 ft | 405 kts | 8° |
| 2026-05-04 20:05 | 48.15542 | 19.57557 | 24110 ft | 406 kts | 5° |
| 2026-05-04 20:05 | 48.17876 | 19.57993 | 24800 ft | 404 kts | 4° |
| 2026-05-04 20:06 | 48.20035 | 19.58377 | 25155 ft | 410 kts | 4° |
| 2026-05-04 20:06 | 48.22607 | 19.58842 | 25760 ft | 411 kts | 4° |
| 2026-05-04 20:06 | 48.25429 | 19.59364 | 26345 ft | 414 kts | 4° |
| 2026-05-04 20:06 | 48.28312 | 19.59902 | 26912 ft | 417 kts | 4° |
| 2026-05-04 20:07 | 48.31175 | 19.60444 | 27496 ft | 419 kts | 4° |
| 2026-05-04 20:07 | 48.34076 | 19.60996 | 28039 ft | 422 kts | 4° |
| 2026-05-04 20:07 | 48.36986 | 19.61553 | 28561 ft | 425 kts | 4° |
| 2026-05-04 20:07 | 48.39514 | 19.62038 | 29028 ft | 427 kts | 4° |
| 2026-05-04 20:08 | 48.42724 | 19.62657 | 29629 ft | 428 kts | 4° |
| 2026-05-04 20:08 | 48.45650 | 19.63230 | 30289 ft | 427 kts | 4° |
| 2026-05-04 20:08 | 48.48577 | 19.63801 | 30962 ft | 424 kts | 4° |
| 2026-05-04 20:08 | 48.51487 | 19.64370 | 31641 ft | 421 kts | 4° |
| 2026-05-04 20:09 | 48.54357 | 19.64929 | 32058 ft | 418 kts | 4° |
| 2026-05-04 20:09 | 48.60091 | 19.66044 | 32075 ft | 415 kts | 4° |
| 2026-05-04 20:10 | 48.65760 | 19.67154 | 32076 ft | 413 kts | 4° |
| 2026-05-04 20:10 | 48.71354 | 19.68248 | 32073 ft | 415 kts | 4° |
| 2026-05-04 20:11 | 48.77013 | 19.69359 | 32073 ft | 414 kts | 4° |
| 2026-05-04 20:11 | 48.82666 | 19.70477 | 32074 ft | 414 kts | 4° |
| 2026-05-04 20:12 | 48.88365 | 19.71605 | 32074 ft | 414 kts | 4° |
| 2026-05-04 20:12 | 48.94058 | 19.72732 | 32074 ft | 414 kts | 4° |
| 2026-05-04 20:13 | 48.99741 | 19.73856 | 32074 ft | 416 kts | 4° |
| 2026-05-04 20:13 | 49.05508 | 19.75003 | 32074 ft | 419 kts | 4° |
| 2026-05-04 20:14 | 49.11142 | 19.76123 | 32074 ft | 422 kts | 4° |
| 2026-05-04 20:14 | 49.16984 | 19.77287 | 32074 ft | 424 kts | 4° |
| 2026-05-04 20:15 | 49.22823 | 19.78458 | 32073 ft | 423 kts | 4° |
| 2026-05-04 20:15 | 49.28632 | 19.80029 | 32074 ft | 427 kts | 11° |
| 2026-05-04 20:16 | 49.34117 | 19.83592 | 32067 ft | 435 kts | 26° |
| 2026-05-04 20:16 | 49.39230 | 19.88392 | 32064 ft | 435 kts | 27° |
| 2026-05-04 20:17 | 49.44352 | 19.93253 | 32073 ft | 434 kts | 27° |
| 2026-05-04 20:17 | 49.49428 | 19.98087 | 32058 ft | 435 kts | 27° |
| 2026-05-04 20:18 | 49.54574 | 20.03001 | 32045 ft | 434 kts | 27° |
| 2026-05-04 20:18 | 49.59721 | 20.07930 | 32046 ft | 434 kts | 27° |
| 2026-05-04 20:19 | 49.64813 | 20.12819 | 32045 ft | 435 kts | 27° |
| 2026-05-04 20:19 | 49.69973 | 20.17785 | 32029 ft | 435 kts | 27° |
| 2026-05-04 20:20 | 49.75107 | 20.22742 | 32004 ft | 434 kts | 27° |
| 2026-05-04 20:20 | 49.80207 | 20.27676 | 31993 ft | 434 kts | 27° |
| 2026-05-04 20:21 | 49.85334 | 20.32647 | 31993 ft | 436 kts | 27° |
| 2026-05-04 20:21 | 49.93020 | 20.40122 | 31993 ft | 435 kts | 27° |
| 2026-05-04 20:22 | 49.98140 | 20.45123 | 31993 ft | 435 kts | 27° |
| 2026-05-04 20:22 | 50.03239 | 20.50114 | 31993 ft | 436 kts | 27° |
| 2026-05-04 20:23 | 50.08476 | 20.54818 | 31992 ft | 431 kts | 20° |
| 2026-05-04 20:23 | 50.14103 | 20.57299 | 31994 ft | 422 kts | 2° |
| 2026-05-04 20:24 | 50.19953 | 20.57970 | 31993 ft | 421 kts | 0° |
| 2026-05-04 20:24 | 50.25774 | 20.58562 | 31993 ft | 421 kts | 0° |
| 2026-05-04 20:25 | 50.31551 | 20.59160 | 31992 ft | 420 kts | 0° |
| 2026-05-04 20:25 | 50.37387 | 20.59770 | 31993 ft | 421 kts | 0° |
| 2026-05-04 20:26 | 50.43209 | 20.60376 | 31992 ft | 420 kts | 0° |
| 2026-05-04 20:26 | 50.49023 | 20.60981 | 31992 ft | 422 kts | 0° |
| 2026-05-04 20:27 | 50.54850 | 20.61592 | 31993 ft | 422 kts | 0° |
| 2026-05-04 20:27 | 50.60685 | 20.62199 | 31988 ft | 421 kts | 0° |
| 2026-05-04 20:28 | 50.66531 | 20.62813 | 31978 ft | 420 kts | 0° |
| 2026-05-04 20:28 | 50.72329 | 20.63419 | 31969 ft | 421 kts | 0° |
| 2026-05-04 20:29 | 50.78106 | 20.64024 | 31575 ft | 411 kts | 0° |
| 2026-05-04 20:29 | 50.80990 | 20.64329 | 30757 ft | 411 kts | 360° |
| 2026-05-04 20:29 | 50.83806 | 20.64628 | 29993 ft | 409 kts | 360° |
| 2026-05-04 20:30 | 50.86610 | 20.64926 | 29257 ft | 408 kts | 360° |
| 2026-05-04 20:30 | 50.89459 | 20.65228 | 28511 ft | 421 kts | 0° |
| 2026-05-04 20:30 | 50.92410 | 20.65535 | 27696 ft | 435 kts | 0° |
| 2026-05-04 20:30 | 50.95358 | 20.65846 | 26842 ft | 434 kts | 1° |
| 2026-05-04 20:31 | 50.98352 | 20.66167 | 25973 ft | 430 kts | 1° |
| 2026-05-04 20:31 | 51.01306 | 20.66482 | 25090 ft | 430 kts | 1° |
| 2026-05-04 20:31 | 51.04357 | 20.66802 | 24163 ft | 446 kts | 1° |
| 2026-05-04 20:31 | 51.07467 | 20.67131 | 23152 ft | 451 kts | 1° |
| 2026-05-04 20:32 | 51.10547 | 20.67463 | 21815 ft | 440 kts | 1° |
| 2026-05-04 20:32 | 51.12988 | 20.67728 | 20363 ft | 435 kts | 1° |
| 2026-05-04 20:32 | 51.15931 | 20.68044 | 19148 ft | 419 kts | 1° |
| 2026-05-04 20:32 | 51.18823 | 20.68356 | 18966 ft | 409 kts | 1° |
| 2026-05-04 20:33 | 51.21638 | 20.68660 | 18967 ft | 404 kts | 1° |
| 2026-05-04 20:33 | 51.24439 | 20.68968 | 18970 ft | 409 kts | 2° |
| 2026-05-04 20:33 | 51.27226 | 20.69491 | 18763 ft | 394 kts | 6° |
| 2026-05-04 20:33 | 51.29856 | 20.70394 | 18558 ft | 378 kts | 13° |
| 2026-05-04 20:34 | 51.32333 | 20.71582 | 18357 ft | 362 kts | 15° |
| 2026-05-04 20:34 | 51.34683 | 20.72788 | 17980 ft | 354 kts | 15° |
| 2026-05-04 20:34 | 51.37043 | 20.74020 | 17438 ft | 352 kts | 15° |
| 2026-05-04 20:34 | 51.39339 | 20.75231 | 16929 ft | 348 kts | 16° |
| 2026-05-04 20:35 | 51.41638 | 20.76453 | 16404 ft | 346 kts | 16° |
| 2026-05-04 20:35 | 51.43937 | 20.77679 | 15900 ft | 356 kts | 16° |
| 2026-05-04 20:35 | 51.46303 | 20.78944 | 15355 ft | 361 kts | 17° |
| 2026-05-04 20:35 | 51.48664 | 20.80218 | 14747 ft | 354 kts | 17° |
| 2026-05-04 20:36 | 51.50951 | 20.81492 | 13858 ft | 346 kts | 18° |
| 2026-05-04 20:36 | 51.53173 | 20.82744 | 13291 ft | 330 kts | 18° |
| 2026-05-04 20:36 | 51.55266 | 20.83923 | 12769 ft | 316 kts | 18° |
| 2026-05-04 20:36 | 51.57325 | 20.85080 | 12091 ft | 310 kts | 18° |
| 2026-05-04 20:37 | 51.59341 | 20.86212 | 11382 ft | 306 kts | 18° |
| 2026-05-04 20:37 | 51.61350 | 20.87341 | 10664 ft | 303 kts | 18° |
| 2026-05-04 20:37 | 51.63320 | 20.88449 | 10048 ft | 296 kts | 18° |
| 2026-05-04 20:37 | 51.65227 | 20.89522 | 9342 ft | 295 kts | 18° |
| 2026-05-04 20:38 | 51.67176 | 20.90618 | 8595 ft | 293 kts | 18° |
| 2026-05-04 20:38 | 51.69075 | 20.91688 | 7906 ft | 290 kts | 18° |
| 2026-05-04 20:38 | 51.70975 | 20.92761 | 7212 ft | 286 kts | 18° |
| 2026-05-04 20:38 | 51.72854 | 20.93822 | 6756 ft | 284 kts | 18° |
| 2026-05-04 20:39 | 51.74703 | 20.94868 | 6448 ft | 279 kts | 18° |
| 2026-05-04 20:39 | 51.76494 | 20.95882 | 6347 ft | 266 kts | 18° |
| 2026-05-04 20:39 | 51.78200 | 20.96850 | 6255 ft | 255 kts | 18° |
| 2026-05-04 20:39 | 51.79865 | 20.97793 | 6082 ft | 249 kts | 18° |
| 2026-05-04 20:40 | 51.81490 | 20.98713 | 5827 ft | 247 kts | 18° |
| 2026-05-04 20:40 | 51.83095 | 20.99623 | 5557 ft | 245 kts | 18° |
| 2026-05-04 20:40 | 51.84698 | 21.00533 | 5128 ft | 244 kts | 18° |
| 2026-05-04 20:40 | 51.86295 | 21.01440 | 4729 ft | 243 kts | 18° |
| 2026-05-04 20:41 | 51.87885 | 21.02344 | 4474 ft | 241 kts | 18° |
| 2026-05-04 20:41 | 51.89485 | 21.03254 | 4189 ft | 240 kts | 18° |
| 2026-05-04 20:41 | 51.91018 | 21.04130 | 4075 ft | 232 kts | 18° |
| 2026-05-04 20:41 | 51.92528 | 21.05002 | 3970 ft | 224 kts | 18° |
| 2026-05-04 20:42 | 51.93982 | 21.05815 | 3868 ft | 217 kts | 18° |
| 2026-05-04 20:42 | 51.95367 | 21.06604 | 3744 ft | 212 kts | 18° |
| 2026-05-04 20:42 | 51.96745 | 21.07394 | 3599 ft | 208 kts | 18° |
| 2026-05-04 20:42 | 51.98107 | 21.08184 | 3349 ft | 210 kts | 18° |
| 2026-05-04 20:43 | 51.99484 | 21.08964 | 3197 ft | 205 kts | 18° |
| 2026-05-04 20:43 | 52.00827 | 21.09646 | 3136 ft | 196 kts | 6° |
| 2026-05-04 20:43 | 52.02107 | 21.09297 | 3072 ft | 183 kts | 331° |
| 2026-05-04 20:43 | 52.03177 | 21.08353 | 3035 ft | 169 kts | 330° |
| 2026-05-04 20:44 | 52.04196 | 21.07467 | 2844 ft | 162 kts | 330° |
| 2026-05-04 20:44 | 52.05175 | 21.06619 | 2648 ft | 160 kts | 330° |
| 2026-05-04 20:44 | 52.06159 | 21.05766 | 2438 ft | 160 kts | 330° |
| 2026-05-04 20:44 | 52.07136 | 21.04919 | 2223 ft | 158 kts | 330° |
| 2026-05-04 20:45 | 52.08107 | 21.04076 | 2012 ft | 160 kts | 330° |
| 2026-05-04 20:45 | 52.09056 | 21.03253 | 1802 ft | 151 kts | 330° |
| 2026-05-04 20:45 | 52.09965 | 21.02463 | 1604 ft | 143 kts | 330° |
| 2026-05-04 20:45 | 52.10809 | 21.01735 | 1402 ft | 135 kts | 330° |
| 2026-05-04 20:46 | 52.11649 | 21.01013 | 1237 ft | 139 kts | 330° |
| 2026-05-04 20:46 | 52.12523 | 21.00274 | 1087 ft | 138 kts | 330° |
| 2026-05-04 20:46 | 52.13347 | 20.99556 | 881 ft | 135 kts | 329° |
| 2026-05-04 20:46 | 52.14176 | 20.98806 | 694 ft | 136 kts | 329° |
| 2026-05-04 20:47 | 52.15007 | 20.98084 | 468 ft | 133 kts | 330° |
| 2026-05-04 20:47 | 52.15799 | 20.97398 | 345 ft | 122 kts | 330° |
| 2026-05-04 20:47 | 52.16370 | 20.96891 | 337 ft | 56 kts | 329° |
| 2026-05-04 20:47 | 52.16607 | 20.96678 | 332 ft | 40 kts | 334° |
| 2026-05-04 20:48 | 52.16873 | 20.96520 | 332 ft | 28 kts | 351° |
| 2026-05-04 20:48 | 52.16984 | 20.96513 | 334 ft | 7 kts | 3° |
| 2026-05-04 20:48 | 52.17012 | 20.96515 | 334 ft | 1 kts | 3° |
| 2026-05-04 20:48 | 52.17020 | 20.96516 | 334 ft | 1 kts | 3° |
| 2026-05-04 20:49 | 52.17028 | 20.96517 | 334 ft | 0 kts | 4° |
| 2026-05-04 20:49 | 52.17056 | 20.96523 | 334 ft | 0 kts | 14° |
| 2026-05-04 20:49 | 52.17079 | 20.96549 | 333 ft | 11 kts | 46° |
| 2026-05-04 20:49 | 52.17151 | 20.96606 | 334 ft | 10 kts | 338° |
| 2026-05-04 20:50 | 52.17231 | 20.96535 | 334 ft | 17 kts | 331° |
| 2026-05-04 20:50 | 52.17353 | 20.96429 | 335 ft | 16 kts | 332° |
| 2026-05-04 20:50 | 52.17439 | 20.96427 | 334 ft | 13 kts | 51° |
| 2026-05-04 20:50 | 52.17485 | 20.96549 | 335 ft | 11 kts | 48° |
| 2026-05-04 20:51 | 52.17530 | 20.96636 | 337 ft | 10 kts | 55° |
| 2026-05-04 20:51 | 52.17582 | 20.96767 | 340 ft | 15 kts | 63° |
| 2026-05-04 20:51 | 52.17642 | 20.96932 | 342 ft | 19 kts | 57° |
| 2026-05-04 20:51 | 52.17675 | 20.97084 | 346 ft | 9 kts | 137° |
| 2026-05-04 20:52 | 52.17646 | 20.97152 | 347 ft | 5 kts | 90° |
| 2026-05-04 20:52 | 52.17649 | 20.97201 | 348 ft | 2 kts | 80° |
| 2026-05-04 20:52 | 52.17651 | 20.97215 | 348 ft | 0 kts | 81° |